Startpagina
METAR-TAF:

METAR-TAF

Vliegvelden :

Aeropuerto Adolfo Suárez Madrid-Barajas

Madrid, Spanje

breedte: 40-27N, lengte: 003-33W, hoogte: 609 m

Actueel weer

Dit bericht is 15 minuten geleden gemaakt, om 06:00 UTC
Wind 3 kt uit het noordnoordwesten
Temperatuur 1°C
Vochtigheid 100%
Druk 1024 hPa
Zicht 10 km of meer
geen wolken onder 1500 m en geen cumulonimbus

METAR: LEMD 070600Z 33003KT CAVOK 01/01 Q1024 NOSIG

Tijdstip: 07:15 (06:15 UTC)

Verwachting

Dit bericht is 1 uur en het 15 minuten geleden gemaakt, om 05:00 UTC
Verwachting geldig van 07 om 06 UTC tot 08 om 12 UTC
Wind 4 kt uit variabele richting
Zicht 10 km of meer
Weinig wolken op 4000 ft
Kans 40% :
Tijdelijke
van 07 om 20 UTC tot 08 om 11 UTC
Zicht: 2500 m
Gebroken wolken op 500 ft
nevel
Kans 40% :
Tijdelijke
van 08 om 03 UTC tot 08 om 09 UTC
Zicht: 0200 m
op 100 ft
mistbanken

TAF: LEMD 070500Z 0706/0812 VRB04KT 9999 FEW040 TX13/0715Z TN01/0706Z PROB40 TEMPO 0720/0811 2500 BR BKN005 PROB40 TEMPO 0803/0809 0200 BCFG VV001

Waarnemingen en weersverwachtingen van meer dan 4000 vliegvelden (METAR en TAF).

De beschikbare stations zijn de gele en rode punten op de kaart.

Ga met uw muis naar het station om de naam te zien.

Klik dan om waarnemingen en weersverwachtingen te zien.

kaart wijzigen: klik op de groene knoppen met een zwart kruis om in te zoomen, op de groene knop met een streepje om uit te zoomen of op de groene pijlen voor aangrenzende kaarten.


METAR-TAF: